Time;durP1;ratioP1;P1;durP2;ratioP2;P2;SDS_P1;SDS_P2;PMS_P1;PMS_P2;Temp;Humidity;BMP_temperature;BMP_pressure;BME280_temperature;BME280_humidity;BME280_pressure;Samples;Min_cycle;Max_cycle;Signal;HPM_P1;HPM_P2
2023/10/02 00:04:28;;;;;;;11.50;5.05;;;20.60;99.90;;;;;;10026501;28;20021;-65
2023/10/02 00:09:20;;;;;;;11.23;5.55;;;20.60;99.90;;;;;;10044059;28;20095;-65
2023/10/02 00:14:19;;;;;;;10.57;4.80;;;20.50;99.90;;;;;;10054926;28;20102;-65
2023/10/02 00:19:20;;;;;;;11.48;5.57;;;20.50;99.90;;;;;;10047260;28;20179;-65
2023/10/02 00:24:13;;;;;;;11.63;5.50;;;20.30;99.90;;;;;;10040943;28;20053;-66
2023/10/02 00:29:06;;;;;;;11.23;5.25;;;20.20;99.90;;;;;;10046042;28;20085;-66
2023/10/02 00:33:56;;;;;;;14.05;5.85;;;20.30;99.90;;;;;;10065648;28;20400;-64
2023/10/02 00:38:50;;;;;;;14.57;6.32;;;20.30;99.90;;;;;;10058363;28;20025;-66
2023/10/02 00:43:45;;;;;;;9.90;5.47;;;20.30;99.90;;;;;;10057069;28;20120;-66
2023/10/02 00:48:37;;;;;;;10.95;5.65;;;20.20;99.90;;;;;;10057068;28;20036;-67
2023/10/02 00:53:40;;;;;;;11.30;5.28;;;20.20;99.90;;;;;;10057328;28;20037;-65
2023/10/02 00:58:32;;;;;;;11.40;4.82;;;20.20;99.90;;;;;;10056728;28;20109;-65
2023/10/02 01:03:23;;;;;;;10.98;4.75;;;20.10;99.90;;;;;;10049749;28;20533;-65
2023/10/02 01:08:25;;;;;;;10.95;5.53;;;20.00;99.90;;;;;;10056796;28;20387;-66
2023/10/02 01:13:17;;;;;;;12.52;5.53;;;20.00;99.90;;;;;;10056732;28;20509;-66
2023/10/02 01:18:27;;;;;;;11.52;5.80;;;20.00;99.90;;;;;;10056600;28;20107;-66
2023/10/02 01:23:23;;;;;;;12.05;4.85;;;20.00;99.90;;;;;;10052838;28;20034;-66
2023/10/02 01:28:15;;;;;;;13.25;5.05;;;19.90;99.90;;;;;;10054766;28;20081;-66
2023/10/02 01:33:12;;;;;;;12.10;5.38;;;19.80;99.90;;;;;;10056255;28;20439;-65
2023/10/02 01:38:12;;;;;;;11.07;4.55;;;19.80;99.90;;;;;;10054791;28;20061;-65
2023/10/02 01:43:13;;;;;;;12.73;5.30;;;19.70;99.90;;;;;;10056471;28;20589;-66
2023/10/02 01:48:08;;;;;;;12.55;5.13;;;19.80;99.90;;;;;;10051957;28;20017;-65
2023/10/02 01:52:58;;;;;;;10.30;5.03;;;19.70;99.90;;;;;;10061245;28;20037;-66
2023/10/02 01:57:49;;;;;;;10.65;5.13;;;19.70;99.90;;;;;;10063709;28;20037;-66
2023/10/02 02:02:41;;;;;;;13.75;5.15;;;19.60;99.90;;;;;;10063374;28;20498;-65
2023/10/02 02:07:35;;;;;;;13.13;4.82;;;19.50;99.90;;;;;;10054478;28;20538;-66
2023/10/02 02:12:25;;;;;;;11.93;5.38;;;19.40;99.90;;;;;;10064871;28;20026;-66
2023/10/02 02:17:20;;;;;;;9.43;5.22;;;19.30;99.90;;;;;;10063733;28;20463;-66
2023/10/02 02:22:11;;;;;;;14.35;5.43;;;19.30;99.90;;;;;;10057578;28;20049;-66
2023/10/02 02:27:04;;;;;;;9.85;4.13;;;19.30;99.90;;;;;;10055002;28;20465;-66
2023/10/02 02:31:54;;;;;;;9.95;4.40;;;19.30;99.90;;;;;;10072538;28;20041;-67
2023/10/02 02:36:49;;;;;;;9.32;5.18;;;19.20;99.90;;;;;;10063082;28;20090;-65
2023/10/02 02:41:39;;;;;;;12.95;5.32;;;19.10;99.90;;;;;;10059998;28;20128;-65
2023/10/02 02:46:32;;;;;;;13.65;5.43;;;19.20;99.90;;;;;;10061852;28;20183;-67
2023/10/02 02:51:24;;;;;;;11.20;5.30;;;19.10;99.90;;;;;;10062572;28;20072;-66
2023/10/02 02:56:16;;;;;;;10.93;5.00;;;18.90;99.90;;;;;;10060859;28;20553;-65
2023/10/02 03:01:12;;;;;;;12.20;4.60;;;19.00;99.90;;;;;;10060622;28;20033;-66
2023/10/02 03:06:04;;;;;;;9.48;5.28;;;19.00;99.90;;;;;;10057429;28;20025;-66
2023/10/02 03:10:57;;;;;;;9.95;4.25;;;19.00;99.90;;;;;;10049350;28;20071;-66
2023/10/02 03:15:48;;;;;;;11.80;5.03;;;18.90;99.90;;;;;;10059088;28;20030;-65
2023/10/02 03:20:43;;;;;;;13.18;5.07;;;19.00;99.90;;;;;;10059884;28;20053;-66
2023/10/02 03:25:45;;;;;;;8.95;4.95;;;18.90;99.90;;;;;;10068660;28;20024;-65
2023/10/02 03:30:38;;;;;;;12.75;4.85;;;18.90;99.90;;;;;;10060135;28;20050;-66
2023/10/02 03:35:39;;;;;;;13.15;5.30;;;18.90;99.90;;;;;;10066591;28;20039;-65
2023/10/02 03:40:31;;;;;;;11.00;3.88;;;18.90;99.90;;;;;;10057797;28;20049;-67
2023/10/02 03:45:38;;;;;;;14.43;4.47;;;18.80;99.90;;;;;;10059246;28;20021;-66
2023/10/02 03:50:36;;;;;;;7.93;4.35;;;18.70;99.90;;;;;;10059604;28;20173;-65
2023/10/02 03:55:26;;;;;;;10.98;4.63;;;18.70;99.90;;;;;;10058475;28;20605;-68
2023/10/02 04:00:21;;;;;;;9.48;5.50;;;18.70;99.90;;;;;;10057827;28;20043;-65
2023/10/02 04:05:30;;;;;;;8.93;5.30;;;18.70;99.90;;;;;;10056566;28;20025;-67
2023/10/02 04:10:23;;;;;;;11.07;5.07;;;18.60;99.90;;;;;;10053730;28;20029;-66
2023/10/02 04:15:14;;;;;;;10.05;5.90;;;18.60;99.90;;;;;;10057664;28;20398;-66
2023/10/02 04:20:26;;;;;;;9.60;5.05;;;18.60;99.90;;;;;;10057963;28;20037;-65
2023/10/02 04:25:17;;;;;;;11.73;5.00;;;18.60;99.90;;;;;;10057853;28;20505;-65
2023/10/02 04:35:03;;;;;;;11.60;5.25;;;18.50;99.90;;;;;;10063310;28;20030;-65
2023/10/02 04:44:56;;;;;;;10.82;4.75;;;18.50;99.90;;;;;;10057340;28;20522;-66
2023/10/02 04:55:07;;;;;;;10.15;4.88;;;18.60;99.90;;;;;;10056553;28;20445;-67
2023/10/02 04:59:57;;;;;;;14.30;6.43;;;18.50;99.90;;;;;;10056949;28;20032;-67
2023/10/02 05:04:52;;;;;;;12.85;6.85;;;18.50;99.90;;;;;;10056329;28;20040;-67
2023/10/02 05:09:49;;;;;;;8.90;4.63;;;18.40;99.90;;;;;;10047402;28;20424;-65
2023/10/02 05:14:51;;;;;;;11.60;5.53;;;18.30;99.90;;;;;;10042098;28;20041;-66
2023/10/02 05:20:07;;;;;;;9.50;5.15;;;18.30;99.90;;;;;;10049222;28;20034;-66
2023/10/02 05:24:59;;;;;;;14.43;6.30;;;18.20;99.90;;;;;;10049072;28;20038;-65
2023/10/02 05:29:51;;;;;;;8.40;5.55;;;18.30;99.90;;;;;;10058849;28;20045;-66
2023/10/02 05:34:58;;;;;;;10.77;5.90;;;18.20;99.90;;;;;;10077967;28;20037;-66
2023/10/02 05:39:50;;;;;;;12.90;5.65;;;18.20;99.90;;;;;;10068374;28;20076;-66
2023/10/02 05:44:44;;;;;;;15.52;5.70;;;18.30;99.90;;;;;;10069297;28;20032;-66
2023/10/02 05:49:37;;;;;;;11.27;5.50;;;18.30;99.90;;;;;;10067879;28;20491;-66
2023/10/02 05:54:35;;;;;;;10.52;5.00;;;18.20;99.90;;;;;;10068737;28;20099;-73
2023/10/02 05:59:43;;;;;;;15.73;6.20;;;18.20;99.90;;;;;;10057873;28;20065;-69
2023/10/02 06:04:34;;;;;;;12.60;5.22;;;18.20;99.90;;;;;;10067588;28;20780;-71
2023/10/02 06:09:30;;;;;;;13.20;5.22;;;18.20;99.90;;;;;;10062363;28;20021;-71
2023/10/02 06:14:28;;;;;;;13.60;6.20;;;18.20;99.90;;;;;;10061377;28;20038;-70
2023/10/02 06:19:19;;;;;;;10.07;5.13;;;18.20;99.90;;;;;;10061268;28;20056;-72
2023/10/02 06:24:10;;;;;;;12.95;5.75;;;18.20;99.90;;;;;;10063669;28;20450;-67
2023/10/02 06:29:13;;;;;;;12.20;5.55;;;18.20;99.90;;;;;;10052853;28;20102;-66
2023/10/02 06:34:06;;;;;;;12.18;5.53;;;18.10;99.90;;;;;;10076437;28;20033;-66
2023/10/02 06:38:58;;;;;;;13.10;6.22;;;18.10;99.90;;;;;;10056155;28;20041;-66
2023/10/02 06:43:48;;;;;;;15.13;5.18;;;18.10;99.90;;;;;;10062004;28;20498;-66
2023/10/02 06:48:43;;;;;;;13.70;5.35;;;18.20;99.90;;;;;;10060435;28;20030;-66
2023/10/02 06:53:34;;;;;;;13.90;6.73;;;18.20;99.90;;;;;;10060632;28;20419;-66
2023/10/02 06:58:26;;;;;;;12.40;5.65;;;18.20;99.90;;;;;;10061811;28;20490;-65
2023/10/02 07:03:17;;;;;;;13.85;6.18;;;18.20;99.90;;;;;;10061473;28;20038;-64
2023/10/02 07:08:27;;;;;;;13.80;6.18;;;18.20;99.90;;;;;;10056329;28;20471;-66
2023/10/02 07:13:21;;;;;;;12.32;5.80;;;18.30;99.90;;;;;;10060764;28;20022;-65
2023/10/02 07:18:12;;;;;;;14.73;6.07;;;18.30;99.90;;;;;;10059347;28;21100;-65
2023/10/02 07:23:11;;;;;;;9.27;5.22;;;18.30;99.90;;;;;;10060476;28;20303;-67
2023/10/02 07:28:03;;;;;;;14.88;5.68;;;18.40;99.90;;;;;;10055087;28;20042;-66
2023/10/02 07:32:54;;;;;;;11.43;5.63;;;18.40;99.90;;;;;;10068705;28;20036;-68
2023/10/02 07:37:57;;;;;;;14.27;6.55;;;18.30;99.90;;;;;;10059544;28;20430;-66
2023/10/02 07:42:48;;;;;;;16.02;6.10;;;18.30;99.90;;;;;;10059411;28;20438;-66
2023/10/02 07:47:55;;;;;;;12.10;5.57;;;18.40;99.90;;;;;;10059489;28;20025;-65
2023/10/02 07:52:49;;;;;;;13.05;5.80;;;18.50;99.90;;;;;;10059326;28;20025;-67
2023/10/02 07:57:39;;;;;;;14.27;6.22;;;18.60;99.90;;;;;;10058954;28;20056;-65
2023/10/02 08:02:33;;;;;;;14.18;6.47;;;18.60;99.90;;;;;;10058891;28;20033;-66
2023/10/02 08:07:24;;;;;;;12.90;5.78;;;18.60;99.90;;;;;;10057390;28;20060;-66
2023/10/02 08:12:29;;;;;;;9.63;5.65;;;18.80;99.90;;;;;;10055026;28;20060;-67
2023/10/02 08:17:27;;;;;;;9.00;5.27;;;18.90;99.90;;;;;;10051108;28;20026;-67
2023/10/02 08:22:20;;;;;;;10.07;6.50;;;18.90;99.90;;;;;;10046806;28;20466;-68
2023/10/02 08:27:13;;;;;;;14.48;5.65;;;19.00;99.90;;;;;;10037489;28;20120;-67
2023/10/02 08:32:04;;;;;;;17.25;8.30;;;19.00;99.90;;;;;;10066979;28;20029;-65
2023/10/02 08:37:07;;;;;;;17.85;6.55;;;19.00;99.90;;;;;;10052094;28;20025;-72
2023/10/02 08:42:09;;;;;;;16.98;7.30;;;19.10;99.90;;;;;;10056843;28;20052;-69
2023/10/02 08:47:00;;;;;;;16.48;6.53;;;19.20;99.90;;;;;;10056135;28;20035;-74
2023/10/02 08:51:51;;;;;;;14.00;6.22;;;19.20;99.90;;;;;;10057466;28;20044;-67
2023/10/02 08:56:48;;;;;;;14.48;7.15;;;19.20;99.90;;;;;;10056159;28;20071;-67
2023/10/02 09:01:38;;;;;;;13.00;7.53;;;19.30;99.90;;;;;;10056369;28;20470;-73
2023/10/02 09:06:36;;;;;;;13.20;6.57;;;19.30;99.90;;;;;;10057597;28;20028;-67
2023/10/02 09:11:34;;;;;;;17.35;6.65;;;19.40;99.90;;;;;;10056468;28;20036;-65
2023/10/02 09:16:29;;;;;;;13.18;6.57;;;19.40;99.90;;;;;;10055590;28;20121;-70
2023/10/02 09:21:21;;;;;;;;;;;19.40;99.90;;;;;;10057156;28;20272;-69
2023/10/02 09:26:21;;;;;;;12.60;6.07;;;19.50;99.90;;;;;;10055349;28;19909;-67
2023/10/02 09:31:14;;;;;;;16.38;6.78;;;19.50;99.90;;;;;;10062411;28;20080;-66
2023/10/02 09:36:06;;;;;;;31.33;8.20;;;19.70;99.90;;;;;;10054523;28;20021;-66
2023/10/02 09:41:08;;;;;;;14.27;6.75;;;19.70;99.90;;;;;;10053030;28;20037;-69
2023/10/02 09:46:06;;;;;;;18.20;7.63;;;19.80;99.90;;;;;;10051265;28;20026;-66
2023/10/02 09:51:06;;;;;;;18.58;7.60;;;19.80;99.90;;;;;;10055163;28;20073;-66
2023/10/02 09:56:06;;;;;;;16.77;6.78;;;19.90;99.90;;;;;;10051385;28;20030;-69
2023/10/02 10:01:33;;;;;;;18.73;6.78;;;20.00;99.90;;;;;;10055006;28;20385;-70
2023/10/02 10:06:41;;;;;;;16.40;7.25;;;20.00;99.90;;;;;;10049765;28;20096;-67
2023/10/02 10:11:34;;;;;;;18.58;7.40;;;20.10;99.90;;;;;;10056908;28;20043;-67
2023/10/02 10:16:29;;;;;;;16.30;8.13;;;20.10;99.90;;;;;;10062301;28;20045;-72
2023/10/02 10:21:55;;;;;;;24.00;7.95;;;20.20;99.90;;;;;;10062428;28;20439;-66
2023/10/02 10:26:46;;;;;;;16.42;6.55;;;20.30;99.90;;;;;;10061036;28;20069;-66
2023/10/02 10:31:38;;;;;;;15.82;7.15;;;20.30;99.90;;;;;;10071674;28;20047;-67
2023/10/02 10:36:36;;;;;;;17.67;6.85;;;20.40;99.90;;;;;;10061402;28;20017;-67
2023/10/02 10:41:30;;;;;;;16.63;7.38;;;20.40;99.90;;;;;;10060359;28;20037;-68
2023/10/02 10:46:24;;;;;;;14.38;7.75;;;20.50;99.90;;;;;;10060409;28;20053;-67
2023/10/02 10:51:20;;;;;;;17.25;6.55;;;20.50;99.90;;;;;;10060279;28;20033;-67
2023/10/02 10:56:17;;;;;;;17.13;6.50;;;20.60;99.90;;;;;;10051281;28;20029;-66
2023/10/02 11:01:13;;;;;;;13.52;6.32;;;20.70;99.90;;;;;;10064089;28;20044;-65
2023/10/02 11:06:04;;;;;;;16.95;6.65;;;20.70;99.90;;;;;;10057145;28;20496;-66
2023/10/02 11:11:25;;;;;;;14.98;6.40;;;20.80;99.90;;;;;;10048514;28;20513;-67
2023/10/02 11:16:37;;;;;;;12.07;5.72;;;20.80;99.90;;;;;;10056938;28;20042;-65
2023/10/02 11:21:28;;;;;;;13.55;5.20;;;20.80;99.90;;;;;;10053974;28;20048;-71
2023/10/02 11:26:22;;;;;;;13.02;5.60;;;20.90;99.90;;;;;;10053011;28;20060;-66
2023/10/02 11:31:29;;;;;;;14.32;6.28;;;21.00;99.90;;;;;;10065369;28;20057;-66
2023/10/02 11:36:20;;;;;;;15.38;6.82;;;21.10;99.90;;;;;;10060705;28;20056;-64
2023/10/02 11:41:10;;;;;;;19.25;7.38;;;21.20;99.90;;;;;;10060288;28;20591;-66
2023/10/02 11:46:01;;;;;;;16.75;7.35;;;21.30;99.90;;;;;;10059726;28;20366;-64
2023/10/02 11:50:55;;;;;;;18.88;7.18;;;21.30;99.90;;;;;;10065265;28;20075;-66
2023/10/02 11:55:48;;;;;;;18.48;7.85;;;21.30;99.90;;;;;;10059359;28;20087;-68
2023/10/02 12:00:39;;;;;;;16.05;6.95;;;21.40;99.90;;;;;;10061493;28;20054;-69
2023/10/02 12:05:36;;;;;;;19.60;8.50;;;21.40;99.90;;;;;;10059538;28;20049;-67
2023/10/02 12:10:28;;;;;;;22.48;8.35;;;21.60;99.90;;;;;;10058806;28;20075;-72
2023/10/02 12:15:19;;;;;;;21.13;7.95;;;21.80;99.90;;;;;;10058079;28;20491;-67
2023/10/02 12:20:11;;;;;;;19.83;9.07;;;22.00;99.90;;;;;;10058276;28;20032;-69
2023/10/02 12:25:04;;;;;;;20.40;8.70;;;22.10;99.90;;;;;;10059314;28;20399;-70
2023/10/02 12:29:56;;;;;;;18.60;8.35;;;22.30;99.90;;;;;;10060099;28;20041;-68
2023/10/02 12:34:46;;;;;;;21.83;9.15;;;22.40;99.90;;;;;;10059774;28;20108;-69
2023/10/02 12:39:37;;;;;;;20.58;8.50;;;22.50;99.90;;;;;;10060275;28;20023;-68
2023/10/02 12:44:30;;;;;;;22.52;8.35;;;22.50;99.90;;;;;;10060003;28;20030;-67
2023/10/02 12:49:21;;;;;;;23.42;9.70;;;22.60;99.90;;;;;;10068176;28;20200;-67
2023/10/02 12:54:12;;;;;;;22.23;8.95;;;22.70;99.90;;;;;;10056248;28;20026;-68
2023/10/02 12:59:04;;;;;;;23.58;8.90;;;22.90;99.90;;;;;;10061028;28;20029;-67
2023/10/02 13:03:56;;;;;;;19.25;9.10;;;23.00;99.90;;;;;;10051905;28;20471;-67
2023/10/02 13:08:47;;;;;;;21.30;8.52;;;23.10;99.90;;;;;;10057386;28;20060;-75
2023/10/02 13:13:41;;;;;;;18.67;8.98;;;23.20;99.90;;;;;;10056597;28;20028;-71
2023/10/02 13:18:33;;;;;;;19.85;8.85;;;23.30;99.90;;;;;;10057985;28;20041;-72
2023/10/02 13:23:25;;;;;;;21.77;9.05;;;23.40;99.90;;;;;;10056293;28;20049;-68
2023/10/02 13:28:16;;;;;;;27.08;9.68;;;23.60;99.90;;;;;;10056257;28;20045;-67
2023/10/02 13:33:07;;;;;;;26.48;10.35;;;23.70;99.90;;;;;;10056183;28;20260;-67
2023/10/02 13:38:00;;;;;;;25.75;11.20;;;23.90;99.90;;;;;;10053114;28;20052;-67
2023/10/02 13:42:51;;;;;;;24.20;10.73;;;24.00;99.90;;;;;;10055063;28;20731;-66
2023/10/02 13:47:42;;;;;;;26.65;11.23;;;24.20;99.90;;;;;;10057685;28;20271;-68
2023/10/02 13:52:32;;;;;;;24.52;10.77;;;24.20;99.90;;;;;;10064297;28;20399;-69
2023/10/02 13:57:23;;;;;;;19.23;9.30;;;24.30;99.90;;;;;;10068272;28;20034;-67
2023/10/02 14:02:14;;;;;;;25.83;11.10;;;24.50;99.90;;;;;;10046115;28;20125;-68
2023/10/02 14:07:06;;;;;;;24.73;11.32;;;24.80;99.90;;;;;;10043604;28;20487;-66
2023/10/02 14:11:57;;;;;;;26.58;11.60;;;24.80;99.90;;;;;;10057826;28;20026;-67
2023/10/02 14:16:47;;;;;;;23.92;9.93;;;25.00;99.90;;;;;;10062264;28;20025;-66
2023/10/02 14:21:38;;;;;;;21.52;9.40;;;25.20;99.90;;;;;;10061872;28;20047;-65
2023/10/02 14:26:29;;;;;;;22.85;10.13;;;25.40;99.90;;;;;;10060562;28;20036;-68
2023/10/02 14:31:23;;;;;;;27.83;11.20;;;25.50;99.90;;;;;;10066237;28;20253;-71
2023/10/02 14:36:14;;;;;;;28.98;12.38;;;25.70;99.90;;;;;;10078072;28;20132;-70
2023/10/02 14:41:07;;;;;;;27.25;11.82;;;25.80;99.90;;;;;;10062115;28;20529;-66
2023/10/02 14:45:58;;;;;;;23.40;9.32;;;26.00;99.90;;;;;;10062204;28;20136;-66
2023/10/02 14:50:50;;;;;;;23.23;10.02;;;26.10;99.90;;;;;;10062619;28;20571;-66
2023/10/02 14:55:46;;;;;;;22.88;10.35;;;26.20;99.90;;;;;;10059750;28;20021;-66
2023/10/02 15:00:36;;;;;;;27.58;11.70;;;26.20;99.90;;;;;;10060423;28;20570;-67
2023/10/02 15:05:28;;;;;;;29.08;12.90;;;26.40;99.70;;;;;;10060446;28;20102;-68
2023/10/02 15:10:26;;;;;;;25.70;11.45;;;26.50;99.50;;;;;;10060597;28;20021;-66
2023/10/02 15:15:19;;;;;;;27.15;11.43;;;26.60;99.20;;;;;;10056825;28;20521;-68
2023/10/02 15:20:14;;;;;;;24.88;11.90;;;26.60;99.10;;;;;;10060467;28;20056;-66
2023/10/02 15:25:05;;;;;;;24.67;11.13;;;26.70;98.90;;;;;;10059087;28;20068;-65
2023/10/02 15:29:56;;;;;;;27.70;11.50;;;26.70;98.70;;;;;;10049032;28;20281;-66
2023/10/02 15:34:49;;;;;;;28.73;13.57;;;26.80;98.70;;;;;;10066299;28;20087;-67
2023/10/02 15:39:40;;;;;;;31.35;13.38;;;26.90;98.40;;;;;;10057296;28;20044;-66
2023/10/02 15:44:31;;;;;;;31.08;11.57;;;27.00;98.30;;;;;;10059380;28;20045;-67
2023/10/02 15:49:23;;;;;;;28.40;13.32;;;26.90;98.20;;;;;;10060929;28;20423;-69
2023/10/02 15:54:13;;;;;;;29.02;12.43;;;26.90;98.00;;;;;;10059423;28;20511;-67
2023/10/02 15:59:06;;;;;;;27.90;13.65;;;26.90;97.90;;;;;;10059677;28;20040;-66
2023/10/02 16:03:56;;;;;;;26.30;11.13;;;27.00;97.70;;;;;;10058266;28;20049;-68
2023/10/02 16:08:48;;;;;;;26.27;12.23;;;27.20;97.60;;;;;;10055785;28;20037;-69
2023/10/02 16:13:38;;;;;;;33.85;14.60;;;27.00;97.60;;;;;;10057634;28;20033;-69
2023/10/02 16:18:29;;;;;;;35.15;16.00;;;26.70;97.60;;;;;;10052719;28;20605;-68
2023/10/02 16:23:20;;;;;;;25.45;13.20;;;26.60;97.70;;;;;;10057558;28;20048;-68
2023/10/02 16:28:11;;;;;;;30.23;13.75;;;26.40;97.70;;;;;;10058026;28;20061;-65
2023/10/02 16:33:02;;;;;;;32.70;16.80;;;26.30;97.70;;;;;;10056032;28;20032;-69
2023/10/02 16:37:52;;;;;;;30.85;14.52;;;26.30;97.80;;;;;;10054900;28;20025;-67
2023/10/02 16:42:46;;;;;;;31.52;14.75;;;26.20;97.80;;;;;;10053469;28;20076;-67
2023/10/02 16:47:40;;;;;;;35.97;16.13;;;26.10;97.90;;;;;;10057119;28;20030;-68
2023/10/02 16:52:31;;;;;;;27.10;14.17;;;26.10;97.90;;;;;;10058373;28;20037;-66
2023/10/02 16:57:22;;;;;;;28.35;12.95;;;26.00;98.10;;;;;;10055953;28;20271;-66
2023/10/02 17:02:13;;;;;;;28.40;12.25;;;26.00;98.30;;;;;;10064323;28;20041;-66
2023/10/02 17:07:04;;;;;;;31.35;15.25;;;25.90;98.60;;;;;;10051995;28;20026;-66
2023/10/02 17:11:55;;;;;;;31.73;17.30;;;25.80;98.80;;;;;;10056583;28;20376;-67
2023/10/02 17:16:45;;;;;;;33.88;15.15;;;25.70;99.00;;;;;;10054251;28;20036;-67
2023/10/02 17:21:38;;;;;;;32.42;14.20;;;25.60;99.20;;;;;;10054855;28;20532;-66
2023/10/02 17:26:29;;;;;;;32.15;15.80;;;25.60;99.40;;;;;;10051009;28;20034;-65
2023/10/02 17:31:21;;;;;;;39.25;18.30;;;25.70;99.50;;;;;;10057965;28;20041;-69
2023/10/02 17:36:11;;;;;;;42.22;16.48;;;25.60;99.60;;;;;;10057096;28;20117;-68
2023/10/02 17:41:02;;;;;;;38.22;16.25;;;25.60;99.50;;;;;;10056516;28;20116;-69
2023/10/02 17:45:52;;;;;;;37.47;16.58;;;25.70;99.50;;;;;;10042311;28;20026;-69
2023/10/02 17:50:43;;;;;;;40.72;18.95;;;25.60;99.60;;;;;;10041538;28;20040;-69
2023/10/02 17:55:34;;;;;;;42.45;19.20;;;25.50;99.70;;;;;;10038118;28;20040;-72
2023/10/02 18:00:26;;;;;;;39.95;18.23;;;25.50;99.70;;;;;;10037458;28;20107;-68
2023/10/02 18:05:16;;;;;;;40.70;16.80;;;25.40;99.90;;;;;;10046395;28;20499;-71
2023/10/02 18:10:07;;;;;;;38.75;16.65;;;25.40;99.80;;;;;;10039820;28;20045;-67
2023/10/02 18:14:58;;;;;;;38.28;17.52;;;25.40;99.90;;;;;;10054866;28;20033;-68
2023/10/02 18:19:49;;;;;;;36.58;17.42;;;25.30;99.90;;;;;;10052427;28;20037;-67
2023/10/02 18:24:41;;;;;;;38.63;16.42;;;25.30;99.90;;;;;;10048007;28;20049;-66
2023/10/02 18:29:32;;;;;;;45.85;19.30;;;25.30;99.90;;;;;;10045148;28;20076;-67
2023/10/02 18:34:23;;;;;;;41.13;18.63;;;25.30;99.90;;;;;;10066467;28;20025;-66
2023/10/02 18:39:20;;;;;;;47.70;17.77;;;25.20;99.90;;;;;;10062314;28;20458;-66
2023/10/02 18:44:12;;;;;;;52.63;22.77;;;25.20;99.90;;;;;;10061638;28;20156;-64
2023/10/02 18:49:03;;;;;;;52.13;25.23;;;25.10;99.90;;;;;;10062337;28;20029;-70
2023/10/02 18:53:57;;;;;;;50.10;21.67;;;25.10;99.90;;;;;;10060637;28;20518;-66
2023/10/02 18:58:48;;;;;;;51.63;20.40;;;24.90;99.90;;;;;;10062242;28;20112;-66
2023/10/02 19:03:38;;;;;;;44.65;19.67;;;24.90;99.90;;;;;;10057582;28;20067;-64
2023/10/02 19:08:29;;;;;;;43.63;18.15;;;24.80;99.90;;;;;;10055071;28;20459;-65
2023/10/02 19:13:21;;;;;;;47.05;18.63;;;24.70;99.90;;;;;;10060714;28;20106;-66
2023/10/02 19:18:12;;;;;;;38.20;15.50;;;24.60;99.90;;;;;;10059146;28;20022;-69
2023/10/02 19:23:03;;;;;;;40.20;16.23;;;24.60;99.90;;;;;;10058773;28;20403;-66
2023/10/02 19:27:53;;;;;;;35.55;16.45;;;24.50;99.90;;;;;;10059762;28;20053;-65
2023/10/02 19:32:44;;;;;;;40.90;16.17;;;24.50;99.90;;;;;;10067566;28;20561;-65
2023/10/02 19:37:35;;;;;;;38.25;16.25;;;24.50;99.90;;;;;;10062455;28;20022;-65
2023/10/02 19:42:25;;;;;;;39.83;15.80;;;24.40;99.90;;;;;;10058889;28;20045;-66
2023/10/02 19:47:16;;;;;;;40.88;17.35;;;24.30;99.90;;;;;;10055609;28;20125;-67
2023/10/02 19:52:07;;;;;;;34.58;15.88;;;24.30;99.90;;;;;;10042495;28;20029;-67
2023/10/02 19:56:57;;;;;;;45.72;16.95;;;24.20;99.90;;;;;;10045488;28;20034;-67
2023/10/02 20:01:48;;;;;;;37.70;17.08;;;24.20;99.90;;;;;;10042060;28;20512;-67
2023/10/02 20:06:39;;;;;;;41.28;16.92;;;24.10;99.90;;;;;;10047875;28;20030;-65
2023/10/02 20:11:30;;;;;;;34.78;16.80;;;24.10;99.90;;;;;;10065035;28;20036;-67
2023/10/02 20:16:21;;;;;;;42.97;17.80;;;24.10;99.90;;;;;;10057493;28;20375;-70
2023/10/02 20:21:19;;;;;;;40.80;19.27;;;24.10;99.90;;;;;;10056553;28;20083;-68
2023/10/02 20:26:12;;;;;;;35.25;17.00;;;24.10;99.90;;;;;;10046431;28;20057;-65
2023/10/02 20:31:10;;;;;;;33.53;15.93;;;23.90;99.90;;;;;;10059717;28;20115;-67
2023/10/02 20:36:09;;;;;;;41.70;19.13;;;23.80;99.90;;;;;;10056475;28;20057;-70
2023/10/02 20:41:03;;;;;;;44.80;17.08;;;23.80;99.90;;;;;;10045655;28;20107;-70
2023/10/02 20:45:54;;;;;;;36.92;16.83;;;23.80;99.90;;;;;;10052094;28;20522;-68
2023/10/02 20:50:48;;;;;;;35.17;16.52;;;23.70;99.90;;;;;;10045947;28;20037;-64
2023/10/02 20:55:39;;;;;;;35.75;16.02;;;23.70;99.90;;;;;;10049060;28;20095;-66
2023/10/02 21:00:30;;;;;;;28.95;14.40;;;23.50;99.90;;;;;;10041241;28;20537;-71
2023/10/02 21:05:20;;;;;;;33.25;15.25;;;23.40;99.90;;;;;;10043665;28;20103;-66
2023/10/02 21:10:11;;;;;;;30.30;14.35;;;23.50;99.90;;;;;;10056152;28;20108;-69
2023/10/02 21:15:04;;;;;;;30.48;14.48;;;23.50;99.90;;;;;;10054853;28;20033;-66
2023/10/02 21:19:55;;;;;;;33.33;13.95;;;23.50;99.90;;;;;;10052134;28;20026;-64
2023/10/02 21:24:45;;;;;;;31.33;13.80;;;23.40;99.90;;;;;;10055344;28;20539;-65
2023/10/02 21:29:36;;;;;;;30.88;14.25;;;23.30;99.90;;;;;;10054154;28;20049;-75
2023/10/02 21:34:27;;;;;;;33.15;13.77;;;23.20;99.90;;;;;;10061876;28;20025;-66
2023/10/02 21:39:18;;;;;;;32.03;14.45;;;23.10;99.90;;;;;;10053482;28;20025;-67
2023/10/02 21:44:09;;;;;;;36.50;14.75;;;23.00;99.90;;;;;;10055559;28;20033;-65
2023/10/02 21:49:00;;;;;;;30.58;13.35;;;23.00;99.90;;;;;;10063065;28;20025;-71
2023/10/02 21:53:51;;;;;;;35.25;13.77;;;23.00;99.90;;;;;;10053324;28;20100;-66
2023/10/02 21:58:45;;;;;;;30.90;12.88;;;22.90;99.90;;;;;;10050771;28;20029;-64
2023/10/02 22:03:41;;;;;;;32.95;12.70;;;22.90;99.90;;;;;;10054093;28;20103;-65
2023/10/02 22:08:32;;;;;;;31.23;13.27;;;22.80;99.90;;;;;;10052897;28;20082;-64
2023/10/02 22:13:23;;;;;;;24.58;12.15;;;22.80;99.90;;;;;;10062624;28;20041;-65
2023/10/02 22:18:14;;;;;;;27.23;11.48;;;22.70;99.90;;;;;;10063350;28;20041;-67
2023/10/02 22:23:06;;;;;;;24.73;11.82;;;22.60;99.90;;;;;;10062327;28;20045;-64
2023/10/02 22:27:59;;;;;;;27.67;11.57;;;22.70;99.90;;;;;;10060802;28;20045;-65
2023/10/02 22:32:50;;;;;;;26.73;11.32;;;22.60;99.90;;;;;;10070894;28;20087;-65
2023/10/02 22:37:41;;;;;;;24.05;10.75;;;22.50;99.90;;;;;;10061978;28;20446;-65
2023/10/02 22:42:32;;;;;;;28.02;11.15;;;22.40;99.90;;;;;;10058897;28;20073;-67
2023/10/02 22:47:26;;;;;;;24.08;11.43;;;22.40;99.90;;;;;;10046367;28;20026;-67
2023/10/02 22:52:18;;;;;;;28.00;11.52;;;22.40;99.90;;;;;;10039884;28;20061;-66
2023/10/02 22:57:08;;;;;;;27.30;13.10;;;22.30;99.90;;;;;;10052749;28;20045;-64
2023/10/02 23:01:59;;;;;;;26.33;11.85;;;22.30;99.90;;;;;;10041612;28;20530;-66
2023/10/02 23:06:52;;;;;;;22.95;11.65;;;22.20;99.90;;;;;;10037475;28;20033;-64
2023/10/02 23:11:42;;;;;;;27.02;10.63;;;22.20;99.90;;;;;;10056444;28;20034;-66
2023/10/02 23:16:33;;;;;;;23.13;10.82;;;22.10;99.90;;;;;;10051380;28;20030;-65
2023/10/02 23:21:24;;;;;;;24.92;11.68;;;22.10;99.90;;;;;;10051148;28;20042;-65
2023/10/02 23:26:16;;;;;;;25.05;11.18;;;21.90;99.90;;;;;;10050537;28;20030;-65
2023/10/02 23:31:07;;;;;;;21.30;10.65;;;21.90;99.90;;;;;;10044345;28;20065;-64
2023/10/02 23:35:57;;;;;;;25.00;11.27;;;22.00;99.90;;;;;;10061414;28;20076;-68
2023/10/02 23:40:48;;;;;;;30.60;10.88;;;22.00;99.90;;;;;;10054588;28;20038;-65
2023/10/02 23:45:39;;;;;;;23.20;11.40;;;22.00;99.90;;;;;;10040286;28;20423;-62
2023/10/02 23:50:31;;;;;;;27.83;10.40;;;22.00;99.90;;;;;;10045138;28;20033;-64
2023/10/02 23:55:27;;;;;;;21.60;9.77;;;22.00;99.90;;;;;;10034227;28;20052;-63
